Ana Sayfa
METAR-TAF:

METAR-TAF

Havaalanları :

Port Harcourt, Nijerya

Enlem: 04-51N, Boylam: 007-01E, yükseklik: 18 m

Güncel hava durumu gözlemi

Rapor saat 06:00 UTC de 50 dakika önce yapıldı.
Sakin rüzgar
Sıcaklık 25°C
Nem 100%
Basınç 1011 hPa
Görüş mesafesi: 3000 m
800 ft yükseklikte parçalı çok bulutlu
2000 ft yükseklikte az bulutlu, Kümülonimbus.
gök gürültülü fırtına, Pus

METAR: DNPO 190600Z 00000KT 3000 TS BR BKN008 FEW020CB 25/25 Q1011 TEMPO 1500

Saat: 07:50 (06:50 UTC)


TAF: eksik

4.000'den fazla havaalanı için hava durumu gözlemleri ve tahminleri (METAR ve TAF raporları).

Kullanılabilir istasyonlar harita üzerinde sarı ve kırmızı noktalarla gösterilir.

İstasyonun adını görmek için fareyi noktanın üzerinde gezdirin.

Sonrasında hava gözlem ve tahminlerini görmek için tıklayın.

Haritayı değiştirmek için: yaklaştırmak için siyah artı işaretli yeşil düğmeye ve uzaklaştırmak için de eksi işaretli düğmeye hızla tıklayın; bitişik haritalar için yeşil okları kullanın.


METAR-TAF: